createdAt,value
2017-10-02T00:00:06.242Z,70.90
2017-10-02T00:02:33.786Z,70.28
2017-10-02T00:05:01.339Z,70.53
2017-10-02T00:07:28.866Z,71.61
2017-10-02T00:09:56.427Z,71.82
2017-10-02T00:12:24.190Z,72.06
2017-10-02T00:14:51.701Z,72.52
2017-10-02T00:17:19.219Z,72.67
2017-10-02T00:19:46.969Z,72.92
2017-10-02T00:22:14.574Z,73.22
2017-10-02T00:24:42.091Z,73.28
2017-10-02T00:27:09.851Z,72.79
2017-10-02T00:29:37.410Z,72.44
2017-10-02T00:32:04.982Z,72.36
2017-10-02T00:34:32.733Z,72.05
2017-10-02T00:37:00.300Z,71.91
2017-10-02T00:39:27.852Z,71.92
2017-10-02T00:41:55.406Z,71.56
2017-10-02T00:44:22.971Z,71.43
2017-10-02T00:46:50.529Z,71.34
2017-10-02T00:49:18.110Z,71.34
2017-10-02T00:51:45.622Z,70.01
2017-10-02T00:54:13.134Z,69.85
2017-10-02T00:56:40.842Z,69.78
2017-10-02T00:59:08.354Z,69.43
2017-10-02T01:01:35.920Z,69.40
2017-10-02T01:04:03.466Z,68.97
2017-10-02T01:06:30.981Z,68.60
2017-10-02T01:08:58.545Z,68.64
2017-10-02T01:11:26.427Z,69.23
2017-10-02T01:13:53.986Z,68.47
2017-10-02T01:16:21.506Z,68.03
2017-10-02T01:18:49.209Z,68.03
2017-10-02T01:21:16.766Z,68.50
2017-10-02T01:23:44.359Z,68.77
2017-10-02T01:26:12.089Z,68.73
2017-10-02T01:28:39.632Z,68.97
2017-10-02T01:31:07.155Z,68.86
2017-10-02T01:33:34.958Z,68.73
2017-10-02T01:36:02.532Z,68.50
2017-10-02T01:38:30.089Z,68.55
2017-10-02T01:40:57.855Z,68.77
2017-10-02T01:43:25.413Z,69.38
2017-10-02T01:45:52.933Z,69.98
2017-10-02T01:48:20.838Z,69.85
2017-10-02T01:50:48.398Z,70.52
2017-10-02T01:53:15.958Z,70.56
2017-10-02T01:55:43.524Z,70.57
2017-10-02T01:58:11.074Z,70.40
2017-10-02T02:00:38.634Z,71.15
2017-10-02T02:03:06.192Z,72.24
2017-10-02T02:05:33.706Z,72.75
2017-10-02T02:08:01.226Z,72.57
2017-10-02T02:10:29.157Z,72.30
2017-10-02T02:12:56.674Z,71.79
2017-10-02T02:15:24.194Z,71.60
2017-10-02T02:17:51.778Z,71.80
2017-10-02T02:20:19.298Z,72.02
2017-10-02T02:22:46.813Z,72.27
2017-10-02T02:25:14.532Z,72.43
2017-10-02T02:27:42.087Z,72.60
2017-10-02T02:30:09.651Z,72.74
2017-10-02T02:32:37.208Z,72.86
2017-10-02T02:35:04.720Z,72.58
2017-10-02T02:37:32.239Z,72.83
2017-10-02T02:40:00.070Z,72.82
2017-10-02T02:42:27.590Z,73.86
2017-10-02T02:44:55.113Z,74.23
2017-10-02T02:47:22.870Z,74.20
2017-10-02T02:49:50.430Z,74.62
2017-10-02T02:52:17.989Z,74.35
2017-10-02T02:54:45.730Z,74.58
2017-10-02T02:57:13.250Z,74.26
2017-10-02T02:59:40.914Z,73.87
2017-10-02T03:02:09.063Z,73.97
2017-10-02T03:04:36.604Z,73.63
2017-10-02T03:07:04.155Z,73.38
2017-10-02T03:09:31.746Z,72.95
2017-10-02T03:11:59.282Z,72.51
2017-10-02T03:14:26.839Z,73.13
2017-10-02T03:16:54.613Z,73.37
2017-10-02T03:19:22.140Z,73.43
2017-10-02T03:21:49.670Z,73.01
2017-10-02T03:24:17.238Z,73.42
2017-10-02T03:26:44.749Z,73.23
2017-10-02T03:29:12.297Z,73.35
2017-10-02T03:31:40.105Z,72.78
2017-10-02T03:34:07.622Z,72.93
2017-10-02T03:36:35.134Z,73.34
2017-10-02T03:39:02.942Z,73.38
2017-10-02T03:41:30.504Z,73.43
2017-10-02T03:43:58.066Z,73.90
2017-10-02T03:46:25.619Z,74.37
2017-10-02T03:48:53.201Z,74.21
2017-10-02T03:51:20.726Z,74.30
2017-10-02T03:53:48.505Z,74.48
2017-10-02T03:56:16.023Z,74.61
2017-10-02T03:58:43.540Z,74.88
2017-10-02T04:01:11.386Z,74.35
2017-10-02T04:03:38.941Z,74.25
2017-10-02T04:06:06.502Z,74.40
2017-10-02T04:08:34.070Z,73.63
2017-10-02T04:11:01.620Z,74.44
2017-10-02T04:13:30.022Z,74.50
2017-10-02T04:15:57.761Z,74.86
2017-10-02T04:18:25.274Z,74.82
2017-10-02T04:20:52.794Z,75.10
2017-10-02T04:23:20.543Z,74.76
2017-10-02T04:25:48.101Z,74.42
2017-10-02T04:28:15.610Z,74.44
2017-10-02T04:30:43.178Z,74.65
2017-10-02T04:33:10.695Z,75.01
2017-10-02T04:35:38.234Z,74.34
2017-10-02T04:38:06.000Z,74.43
2017-10-02T04:40:33.558Z,73.82
2017-10-02T04:43:01.117Z,74.22
2017-10-02T04:45:28.757Z,74.48
2017-10-02T04:47:56.337Z,74.63
2017-10-02T04:50:23.852Z,74.54
2017-10-02T04:52:51.558Z,74.55
2017-10-02T04:55:19.155Z,74.40
2017-10-02T04:57:46.682Z,73.73
2017-10-02T05:00:14.242Z,74.32
2017-10-02T05:02:41.796Z,74.42
2017-10-02T05:05:09.354Z,74.31
2017-10-02T05:07:36.913Z,74.24
2017-10-02T05:10:04.479Z,73.59
2017-10-02T05:12:32.034Z,74.04
2017-10-02T05:14:59.583Z,73.81
2017-10-02T05:17:28.073Z,73.50
2017-10-02T05:19:55.597Z,73.46
2017-10-02T05:22:23.190Z,73.16
2017-10-02T05:24:50.748Z,73.30
2017-10-02T05:27:18.286Z,73.19
2017-10-02T05:29:46.070Z,73.11
2017-10-02T05:32:13.630Z,72.58
2017-10-02T05:34:41.212Z,72.34
2017-10-02T05:37:08.828Z,72.43
2017-10-02T05:39:36.354Z,72.57
2017-10-02T05:42:03.886Z,72.34
2017-10-02T05:44:31.438Z,71.80
2017-10-02T05:46:58.975Z,71.91
2017-10-02T05:49:26.544Z,72.43
2017-10-02T05:51:54.125Z,71.95
2017-10-02T05:54:21.663Z,72.16
2017-10-02T05:56:49.219Z,71.59
2017-10-02T05:59:17.066Z,71.60
2017-10-02T06:01:44.580Z,71.22
2017-10-02T06:04:12.123Z,71.04
2017-10-02T06:06:39.906Z,70.16
2017-10-02T06:09:07.438Z,69.14
2017-10-02T06:11:34.985Z,68.96
2017-10-02T06:14:02.608Z,68.63
2017-10-02T06:16:30.119Z,69.00
2017-10-02T06:18:57.634Z,69.69
2017-10-02T06:21:25.302Z,69.69
2017-10-02T06:23:52.822Z,70.32
2017-10-02T06:26:20.338Z,69.62
2017-10-02T06:28:47.897Z,69.56
2017-10-02T06:31:15.402Z,69.32
2017-10-02T06:33:42.915Z,68.74
2017-10-02T06:36:10.574Z,68.85
2017-10-02T06:38:38.083Z,69.60
2017-10-02T06:41:05.595Z,69.16
2017-10-02T06:43:33.501Z,68.36
2017-10-02T06:46:01.019Z,67.52
2017-10-02T06:48:28.599Z,67.18
2017-10-02T06:50:56.246Z,67.18
2017-10-02T06:53:23.797Z,67.06
2017-10-02T06:55:51.363Z,66.71
2017-10-02T06:58:19.153Z,65.36
2017-10-02T07:00:46.669Z,64.83
2017-10-02T07:03:14.178Z,65.14
2017-10-02T07:05:41.897Z,64.56
2017-10-02T07:08:09.457Z,63.45
2017-10-02T07:10:37.019Z,63.58
2017-10-02T07:13:04.706Z,63.49
2017-10-02T07:15:32.222Z,63.63
2017-10-02T07:17:59.733Z,63.60
2017-10-02T07:20:27.299Z,63.58
2017-10-02T07:22:54.807Z,63.03
2017-10-02T07:25:22.334Z,63.40
2017-10-02T07:27:50.221Z,63.74
2017-10-02T07:30:17.742Z,63.53
2017-10-02T07:32:45.296Z,63.50
2017-10-02T07:35:12.914Z,63.11
2017-10-02T07:37:40.475Z,63.78
2017-10-02T07:40:07.989Z,63.07
2017-10-02T07:42:35.706Z,62.87
2017-10-02T07:45:03.227Z,62.79
2017-10-02T07:47:30.742Z,61.98
2017-10-02T07:49:58.446Z,61.72
2017-10-02T07:52:25.984Z,60.57
2017-10-02T07:54:54.415Z,60.00
2017-10-02T07:57:22.174Z,59.91
2017-10-02T07:59:49.755Z,59.29
2017-10-02T08:02:17.292Z,58.35
2017-10-02T08:04:45.031Z,57.88
2017-10-02T08:07:12.605Z,57.49
2017-10-02T08:09:40.183Z,57.48
2017-10-02T08:12:07.882Z,56.92
2017-10-02T08:14:35.402Z,56.47
2017-10-02T08:17:02.953Z,55.80
2017-10-02T08:19:30.717Z,56.37
2017-10-02T08:21:58.227Z,56.86
2017-10-02T08:24:26.657Z,56.30
2017-10-02T08:26:54.217Z,56.78
2017-10-02T08:29:21.775Z,57.08
2017-10-02T08:31:49.334Z,56.56
2017-10-02T08:34:16.894Z,56.08
2017-10-02T08:36:44.411Z,55.96
2017-10-02T08:39:11.931Z,55.55
2017-10-02T08:41:39.671Z,56.25
2017-10-02T08:44:07.178Z,56.02
2017-10-02T08:46:34.686Z,56.33
2017-10-02T08:49:02.450Z,56.79
2017-10-02T08:51:29.961Z,56.73
2017-10-02T08:53:57.474Z,56.79
2017-10-02T08:56:25.423Z,57.18
2017-10-02T08:58:53.059Z,58.09
2017-10-02T09:01:20.613Z,58.19
2017-10-02T09:03:48.419Z,58.24
2017-10-02T09:06:15.982Z,58.70
2017-10-02T09:08:43.744Z,58.51
2017-10-02T09:11:11.430Z,58.35
2017-10-02T09:13:39.107Z,59.02
2017-10-02T09:16:06.824Z,59.82
2017-10-02T09:18:34.361Z,60.18
2017-10-02T09:21:01.882Z,60.81
2017-10-02T09:23:29.404Z,61.22
2017-10-02T09:25:57.301Z,62.55
2017-10-02T09:28:24.866Z,63.10
2017-10-02T09:30:53.314Z,64.88
2017-10-02T09:33:22.274Z,66.01
2017-10-02T09:35:49.863Z,67.21
2017-10-02T09:38:17.375Z,68.12
2017-10-02T09:40:44.926Z,68.32
2017-10-02T09:43:12.540Z,68.73
2017-10-02T09:45:40.099Z,68.81
2017-10-02T09:48:07.671Z,68.27
2017-10-02T09:50:35.249Z,67.47
2017-10-02T09:53:03.492Z,67.22
2017-10-02T09:55:31.155Z,66.98
2017-10-02T09:57:58.745Z,66.19
2017-10-02T10:00:26.333Z,65.65
2017-10-02T10:02:54.241Z,65.28
2017-10-02T10:05:21.905Z,64.73
2017-10-02T10:07:49.555Z,64.17
2017-10-02T10:10:17.334Z,63.63
2017-10-02T10:12:45.092Z,63.76
2017-10-02T10:15:12.758Z,63.91
2017-10-02T10:17:40.321Z,64.33
2017-10-02T10:20:08.346Z,64.37
2017-10-02T10:22:35.862Z,64.58
2017-10-02T10:25:03.424Z,64.20
2017-10-02T10:27:30.949Z,64.49
2017-10-02T10:29:58.466Z,64.28
2017-10-02T10:32:26.105Z,64.09
2017-10-02T10:34:53.623Z,63.80
2017-10-02T10:37:21.342Z,62.93
2017-10-02T10:39:49.390Z,62.77
2017-10-02T10:42:16.988Z,63.05
2017-10-02T10:44:44.547Z,62.72
2017-10-02T10:47:12.468Z,62.72
2017-10-02T10:49:40.118Z,60.54
2017-10-02T10:52:07.781Z,60.07
2017-10-02T10:54:35.526Z,59.39
2017-10-02T10:57:03.100Z,58.88
2017-10-02T10:59:30.610Z,59.60
2017-10-02T11:01:58.322Z,59.66
2017-10-02T11:04:25.833Z,58.63
2017-10-02T11:06:53.489Z,57.95
2017-10-02T11:09:21.054Z,56.79
2017-10-02T11:11:48.563Z,56.14
2017-10-02T11:14:16.178Z,55.49
2017-10-02T11:16:43.781Z,52.42
2017-10-02T11:19:11.542Z,48.65
2017-10-02T11:21:39.108Z,47.37
2017-10-02T11:24:06.803Z,45.03
2017-10-02T11:26:34.410Z,46.08
2017-10-02T11:29:01.942Z,47.73
2017-10-02T11:31:29.852Z,47.69
2017-10-02T11:33:57.410Z,48.80
2017-10-02T11:36:25.174Z,50.52
2017-10-02T11:38:53.140Z,51.48
2017-10-02T11:41:21.654Z,52.71
2017-10-02T11:43:49.391Z,52.17
2017-10-02T11:46:17.562Z,52.96
2017-10-02T11:48:45.323Z,53.72
2017-10-02T11:51:13.914Z,54.24
2017-10-02T11:53:41.674Z,53.83
2017-10-02T11:56:10.290Z,55.96
2017-10-02T11:58:37.917Z,55.01
2017-10-02T12:01:05.579Z,55.18
2017-10-02T12:03:33.293Z,55.04
2017-10-02T12:06:01.972Z,54.92
2017-10-02T12:08:30.204Z,55.53
2017-10-02T12:10:58.068Z,55.12
2017-10-02T12:13:26.497Z,55.66
2017-10-02T12:15:54.423Z,54.95
2017-10-02T12:18:22.186Z,54.04
2017-10-02T12:20:49.926Z,54.41
2017-10-02T12:23:17.810Z,55.67
2017-10-02T12:25:45.479Z,55.68
2017-10-02T12:28:13.234Z,56.04
2017-10-02T12:30:41.235Z,56.51
2017-10-02T12:33:08.967Z,57.05
2017-10-02T12:35:36.630Z,57.56
2017-10-02T12:38:04.264Z,56.75
2017-10-02T12:40:31.858Z,56.13
2017-10-02T12:42:59.778Z,56.79
2017-10-02T12:45:27.516Z,56.82
2017-10-02T12:47:55.142Z,56.64
2017-10-02T12:50:22.820Z,55.86
2017-10-02T12:52:50.771Z,55.55
2017-10-02T12:55:18.541Z,56.91
2017-10-02T12:57:46.300Z,56.30
2017-10-02T13:00:14.375Z,56.26
2017-10-02T13:02:42.241Z,56.80
2017-10-02T13:05:09.827Z,56.72
2017-10-02T13:07:37.597Z,56.98
2017-10-02T13:10:05.154Z,57.01
2017-10-02T13:12:32.896Z,57.03
2017-10-02T13:15:00.646Z,56.82
2017-10-02T13:17:28.421Z,56.44
2017-10-02T13:19:56.277Z,56.49
2017-10-02T13:22:24.249Z,57.81
2017-10-02T13:24:52.012Z,57.33
2017-10-02T13:27:19.775Z,57.44
2017-10-02T13:29:47.698Z,57.02
2017-10-02T13:32:15.506Z,56.67
2017-10-02T13:34:43.486Z,56.14
2017-10-02T13:37:11.357Z,56.36
2017-10-02T13:39:38.972Z,57.33
2017-10-02T13:42:06.786Z,56.53
2017-10-02T13:44:34.532Z,56.20
2017-10-02T13:47:02.091Z,56.00
2017-10-02T13:49:29.855Z,56.02
2017-10-02T13:51:57.622Z,55.26
2017-10-02T13:54:28.983Z,55.03
2017-10-02T13:56:56.538Z,55.46
2017-10-02T13:59:24.492Z,56.31
2017-10-02T14:01:52.003Z,56.78
2017-10-02T14:04:19.715Z,58.19
2017-10-02T14:06:47.786Z,58.70
2017-10-02T14:09:15.345Z,59.05
2017-10-02T14:11:42.991Z,59.27
2017-10-02T14:14:10.858Z,59.77
2017-10-02T14:16:38.366Z,59.87
2017-10-02T14:19:05.927Z,60.33
2017-10-02T14:21:34.190Z,59.88
2017-10-02T14:24:01.927Z,59.49
2017-10-02T14:26:29.589Z,59.51
2017-10-02T14:28:57.147Z,58.30
2017-10-02T14:31:24.776Z,58.26
2017-10-02T14:33:52.303Z,58.47
2017-10-02T14:36:19.951Z,58.54
2017-10-02T14:38:47.655Z,58.69
2017-10-02T14:41:15.447Z,59.12
2017-10-02T14:43:42.990Z,58.79
2017-10-02T14:46:10.575Z,58.71
2017-10-02T14:48:38.132Z,59.05
2017-10-02T14:51:05.693Z,59.24
2017-10-02T14:53:33.214Z,59.66
2017-10-02T14:56:00.728Z,59.53
2017-10-02T14:58:28.470Z,59.91
2017-10-02T15:00:56.133Z,59.81
2017-10-02T15:03:23.688Z,59.96
2017-10-02T15:05:51.456Z,60.74
2017-10-02T15:08:19.221Z,61.15
2017-10-02T15:10:46.780Z,61.63
2017-10-02T15:13:14.648Z,61.50
2017-10-02T15:15:42.241Z,61.63
2017-10-02T15:18:09.787Z,61.75
2017-10-02T15:20:37.529Z,62.24
2017-10-02T15:23:05.087Z,61.83
2017-10-02T15:25:32.826Z,61.48
2017-10-02T15:28:00.446Z,61.35
2017-10-02T15:30:28.034Z,60.95
2017-10-02T15:32:55.969Z,60.56
2017-10-02T15:35:23.524Z,61.41
2017-10-02T15:37:51.165Z,60.83
2017-10-02T15:40:18.821Z,61.17
2017-10-02T15:42:46.900Z,61.83
2017-10-02T15:45:14.570Z,62.05
2017-10-02T15:47:42.418Z,61.37
2017-10-02T15:50:10.185Z,61.32
2017-10-02T15:52:38.663Z,60.92
2017-10-02T15:55:06.433Z,61.44
2017-10-02T15:57:34.395Z,62.01
2017-10-02T16:00:01.942Z,62.02
2017-10-02T16:02:29.598Z,62.64
2017-10-02T16:04:57.381Z,61.89
2017-10-02T16:07:24.931Z,61.90
2017-10-02T16:09:52.499Z,62.08
2017-10-02T16:12:20.263Z,62.36
2017-10-02T16:14:47.926Z,62.52
2017-10-02T16:17:15.688Z,63.47
2017-10-02T16:19:43.293Z,63.21
2017-10-02T16:22:10.866Z,62.94
2017-10-02T16:24:38.369Z,63.88
2017-10-02T16:27:06.132Z,64.12
2017-10-02T16:29:33.689Z,63.79
2017-10-02T16:32:01.196Z,64.28
2017-10-02T16:34:29.033Z,64.78
2017-10-02T16:36:56.572Z,64.42
2017-10-02T16:39:24.143Z,63.97
2017-10-02T16:41:52.010Z,64.37
2017-10-02T16:44:19.783Z,63.98
2017-10-02T16:46:47.522Z,63.70
2017-10-02T16:49:15.087Z,64.14
2017-10-02T16:51:42.746Z,65.00
2017-10-02T16:54:10.316Z,64.95
2017-10-02T16:56:38.050Z,65.06
2017-10-02T16:59:05.629Z,65.36
2017-10-02T17:01:33.251Z,65.19
2017-10-02T17:04:01.138Z,64.59
2017-10-02T17:06:28.818Z,64.84
2017-10-02T17:08:56.787Z,65.59
2017-10-02T17:11:24.376Z,65.31
2017-10-02T17:13:52.229Z,65.63
2017-10-02T17:16:19.879Z,65.56
2017-10-02T17:18:47.535Z,65.32
2017-10-02T17:21:15.199Z,65.53
2017-10-02T17:23:42.722Z,65.67
2017-10-02T17:26:10.310Z,65.76
2017-10-02T17:28:37.873Z,66.13
2017-10-02T17:31:05.537Z,66.43
2017-10-02T17:33:33.208Z,66.08
2017-10-02T17:36:00.858Z,66.63
2017-10-02T17:38:28.469Z,66.38
2017-10-02T17:40:56.391Z,66.43
2017-10-02T17:43:24.030Z,66.46
2017-10-02T17:45:51.915Z,66.79
2017-10-02T17:48:19.535Z,66.24
2017-10-02T17:50:47.132Z,66.43
2017-10-02T17:53:14.738Z,66.51
2017-10-02T17:55:42.401Z,66.66
2017-10-02T17:58:10.107Z,67.07
2017-10-02T18:00:37.771Z,67.13
2017-10-02T18:03:05.582Z,66.94
2017-10-02T18:05:33.146Z,67.21
2017-10-02T18:08:00.769Z,67.44
2017-10-02T18:10:28.732Z,67.14
2017-10-02T18:12:56.312Z,67.16
2017-10-02T18:15:23.921Z,67.39
2017-10-02T18:17:51.822Z,67.59
2017-10-02T18:20:19.473Z,68.35
2017-10-02T18:22:47.068Z,67.41
2017-10-02T18:25:14.977Z,67.58
2017-10-02T18:27:42.507Z,67.11
2017-10-02T18:30:10.242Z,67.16
2017-10-02T18:32:37.893Z,67.40
2017-10-02T18:35:05.453Z,67.26
2017-10-02T18:37:32.966Z,68.01
2017-10-02T18:40:00.774Z,68.85
2017-10-02T18:42:28.333Z,69.34
2017-10-02T18:44:55.951Z,68.39
2017-10-02T18:47:23.634Z,68.56
2017-10-02T18:49:51.162Z,68.76
2017-10-02T18:52:18.775Z,69.08
2017-10-02T18:54:46.686Z,69.31
2017-10-02T18:57:14.507Z,69.12
2017-10-02T18:59:42.178Z,68.77
2017-10-02T19:02:10.274Z,69.72
2017-10-02T19:04:38.006Z,69.22
2017-10-02T19:07:05.870Z,68.85
2017-10-02T19:09:33.434Z,69.09
2017-10-02T19:12:01.090Z,69.23
2017-10-02T19:14:29.058Z,68.74
2017-10-02T19:16:56.721Z,68.94
2017-10-02T19:19:24.282Z,69.17
2017-10-02T19:21:52.043Z,69.03
2017-10-02T19:24:19.807Z,68.10
2017-10-02T19:26:47.980Z,68.61
2017-10-02T19:29:15.553Z,69.05
2017-10-02T19:31:43.614Z,68.45
2017-10-02T19:34:11.386Z,69.65
2017-10-02T19:36:39.042Z,70.00
2017-10-02T19:39:06.879Z,70.25
2017-10-02T19:41:34.668Z,70.17
2017-10-02T19:44:02.328Z,70.13
2017-10-02T19:46:31.015Z,70.08
2017-10-02T19:48:58.663Z,71.04
2017-10-02T19:51:26.194Z,70.46
2017-10-02T19:53:54.098Z,71.31
2017-10-02T19:56:21.760Z,71.81
2017-10-02T19:58:49.444Z,71.73
2017-10-02T20:01:17.299Z,72.50
2017-10-02T20:03:44.898Z,73.17
2017-10-02T20:06:12.516Z,72.81
2017-10-02T20:08:40.288Z,73.00
2017-10-02T20:11:08.142Z,73.06
2017-10-02T20:13:35.918Z,72.85
2017-10-02T20:16:03.874Z,73.82
2017-10-02T20:18:31.577Z,73.43
2017-10-02T20:20:59.311Z,73.72
2017-10-02T20:23:27.371Z,73.82
2017-10-02T20:25:55.201Z,73.65
2017-10-02T20:28:24.639Z,74.62
2017-10-02T20:30:52.556Z,74.78
2017-10-02T20:33:20.114Z,73.79
2017-10-02T20:35:47.830Z,74.23
2017-10-02T20:38:15.901Z,72.72
2017-10-02T20:40:43.674Z,72.26
2017-10-02T20:43:11.439Z,72.00
2017-10-02T20:45:39.174Z,71.60
2017-10-02T20:48:06.805Z,71.40
2017-10-02T20:50:34.378Z,72.23
2017-10-02T20:53:02.149Z,73.96
2017-10-02T20:55:29.839Z,73.97
2017-10-02T20:57:57.716Z,73.79
2017-10-02T21:00:25.368Z,73.70
2017-10-02T21:02:53.129Z,73.42
2017-10-02T21:05:20.894Z,73.91
2017-10-02T21:07:48.465Z,73.64
2017-10-02T21:10:15.993Z,72.80
2017-10-02T21:12:43.572Z,74.50
2017-10-02T21:15:11.348Z,74.88
2017-10-02T21:17:38.979Z,74.62
2017-10-02T21:20:06.515Z,74.62
2017-10-02T21:22:34.423Z,74.53
2017-10-02T21:25:01.983Z,74.33
2017-10-02T21:27:29.546Z,74.18
2017-10-02T21:29:57.356Z,73.72
2017-10-02T21:32:24.918Z,73.48
2017-10-02T21:34:52.443Z,73.67
2017-10-02T21:37:19.990Z,73.25
2017-10-02T21:39:47.542Z,73.06
2017-10-02T21:42:15.087Z,73.13
2017-10-02T21:44:42.929Z,72.66
2017-10-02T21:47:10.471Z,72.55
2017-10-02T21:49:37.987Z,72.86
2017-10-02T21:52:06.361Z,73.01
2017-10-02T21:54:33.920Z,72.33
2017-10-02T21:57:01.518Z,72.95
2017-10-02T21:59:29.493Z,72.81
2017-10-02T22:01:57.029Z,72.47
2017-10-02T22:04:24.565Z,72.65
2017-10-02T22:06:52.331Z,72.24
2017-10-02T22:09:19.889Z,72.63
2017-10-02T22:11:47.858Z,72.33
2017-10-02T22:14:15.416Z,72.44
2017-10-02T22:16:43.002Z,72.52
2017-10-02T22:19:10.543Z,73.44
2017-10-02T22:21:38.095Z,73.19
2017-10-02T22:24:05.678Z,73.44
2017-10-02T22:26:33.215Z,72.89
2017-10-02T22:29:01.131Z,73.41
2017-10-02T22:31:28.668Z,73.42
2017-10-02T22:33:56.198Z,72.63
2017-10-02T22:36:24.026Z,72.87
2017-10-02T22:38:51.538Z,72.90
2017-10-02T22:41:19.117Z,72.62
2017-10-02T22:43:46.705Z,72.01
2017-10-02T22:46:14.225Z,72.26
2017-10-02T22:48:41.858Z,72.03
2017-10-02T22:51:09.726Z,71.91
2017-10-02T22:53:37.285Z,72.18
2017-10-02T22:56:04.871Z,71.93
2017-10-02T22:58:32.433Z,71.67
2017-10-02T23:01:00.887Z,72.47
2017-10-02T23:03:28.406Z,71.42
2017-10-02T23:05:55.938Z,71.43
2017-10-02T23:08:23.446Z,71.25
2017-10-02T23:10:51.017Z,71.29
2017-10-02T23:13:18.576Z,70.85
2017-10-02T23:15:46.191Z,71.13
2017-10-02T23:18:13.698Z,71.11
2017-10-02T23:20:41.254Z,71.00
2017-10-02T23:23:08.814Z,70.71
2017-10-02T23:25:36.376Z,70.43
2017-10-02T23:28:03.963Z,70.63
2017-10-02T23:30:31.483Z,70.14
2017-10-02T23:32:59.050Z,70.24
2017-10-02T23:35:26.599Z,70.18
2017-10-02T23:37:54.122Z,70.00
2017-10-02T23:40:21.662Z,69.82
2017-10-02T23:42:49.358Z,69.64
2017-10-02T23:45:16.866Z,69.87
2017-10-02T23:47:44.381Z,69.65
2017-10-02T23:50:11.967Z,68.83
2017-10-02T23:52:39.523Z,67.71
2017-10-02T23:55:07.025Z,67.32
2017-10-02T23:57:34.655Z,68.39
